createdAt,value
2022-08-28T00:00:35.256Z,5.77
2022-08-28T00:03:03.342Z,4.73
2022-08-28T00:05:33.729Z,4.70
2022-08-28T00:08:03.232Z,4.93
2022-08-28T00:10:31.383Z,4.97
2022-08-28T00:12:59.553Z,7.47
2022-08-28T00:15:28.644Z,5.53
2022-08-28T00:17:56.613Z,4.57
2022-08-28T00:20:24.836Z,5.73
2022-08-28T00:22:55.511Z,6.13
2022-08-28T00:25:25.829Z,5.83
2022-08-28T00:27:52.869Z,4.73
2022-08-28T00:30:22.585Z,4.73
2022-08-28T00:32:50.624Z,5.03
2022-08-28T00:35:18.835Z,4.57
2022-08-28T00:37:48.235Z,8.93
2022-08-28T00:40:18.677Z,4.77
2022-08-28T00:42:58.120Z,5.27
2022-08-28T00:45:26.689Z,5.20
2022-08-28T00:47:54.630Z,5.00
2022-08-28T00:50:25.510Z,5.13
2022-08-28T00:52:53.857Z,6.33
2022-08-28T00:55:23.034Z,6.87
2022-08-28T00:57:52.353Z,5.40
2022-08-28T01:00:23.912Z,9.30
2022-08-28T01:02:52.037Z,5.37
2022-08-28T01:05:20.069Z,6.33
2022-08-28T01:07:48.065Z,5.33
2022-08-28T01:10:18.269Z,4.87
2022-08-28T01:12:46.491Z,5.53
2022-08-28T01:15:17.492Z,4.87
2022-08-28T01:17:48.435Z,7.80
2022-08-28T01:20:17.880Z,6.13
2022-08-28T01:22:49.100Z,6.00
2022-08-28T01:25:20.623Z,6.03
2022-08-28T01:27:48.688Z,6.27
2022-08-28T01:30:17.847Z,8.23
2022-08-28T01:32:47.316Z,7.50
2022-08-28T01:35:17.024Z,9.10
2022-08-28T01:37:45.093Z,10.60
2022-08-28T01:40:14.151Z,6.13
2022-08-28T01:42:44.008Z,6.17
2022-08-28T01:45:13.688Z,8.57
2022-08-28T01:47:41.801Z,8.93
2022-08-28T01:50:10.626Z,8.40
2022-08-28T01:52:40.665Z,10.07
2022-08-28T01:55:09.306Z,8.07
2022-08-28T01:57:37.338Z,9.87
2022-08-28T02:00:08.442Z,8.63
2022-08-28T02:02:36.488Z,9.47
2022-08-28T02:05:04.629Z,8.87
2022-08-28T02:07:32.612Z,6.97
2022-08-28T02:10:00.599Z,7.60
2022-08-28T02:12:28.673Z,7.17
2022-08-28T02:14:56.688Z,10.07
2022-08-28T02:17:26.105Z,8.63
2022-08-28T02:19:54.218Z,7.30
2022-08-28T02:22:22.238Z,9.40
2022-08-28T02:24:50.206Z,7.27
2022-08-28T02:27:18.192Z,11.93
2022-08-28T02:29:46.951Z,7.03
2022-08-28T02:32:14.908Z,8.53
2022-08-28T02:34:44.328Z,6.80
2022-08-28T02:37:13.374Z,8.80
2022-08-28T02:39:41.447Z,7.13
2022-08-28T02:42:09.532Z,10.50
2022-08-28T02:44:37.554Z,7.93
2022-08-28T02:47:05.814Z,8.90
2022-08-28T02:49:36.139Z,6.87
2022-08-28T02:52:06.842Z,10.00
2022-08-28T02:54:34.851Z,11.30
2022-08-28T02:57:02.832Z,9.10
2022-08-28T02:59:32.129Z,11.53
2022-08-28T03:02:00.900Z,9.37
2022-08-28T03:04:28.882Z,15.20
2022-08-28T03:06:56.884Z,13.37
2022-08-28T03:09:26.260Z,18.50
2022-08-28T03:11:54.717Z,18.73
2022-08-28T03:14:22.792Z,14.97
2022-08-28T03:16:50.802Z,16.00
2022-08-28T03:19:18.825Z,14.23
2022-08-28T03:21:46.777Z,14.90
2022-08-28T03:24:15.229Z,10.60
2022-08-28T03:26:45.179Z,12.77
2022-08-28T03:29:13.160Z,12.93
2022-08-28T03:31:41.165Z,15.53
2022-08-28T03:34:09.619Z,11.80
2022-08-28T03:36:37.579Z,10.87
2022-08-28T03:39:06.551Z,11.17
2022-08-28T03:41:35.215Z,11.13
2022-08-28T03:44:05.077Z,13.90
2022-08-28T03:46:33.861Z,14.87
2022-08-28T03:49:02.003Z,13.60
2022-08-28T03:51:33.008Z,13.20
2022-08-28T03:54:01.146Z,16.20
2022-08-28T03:56:30.088Z,14.47
2022-08-28T03:58:59.103Z,12.77
2022-08-28T04:01:28.916Z,13.60
2022-08-28T04:03:57.196Z,13.27
2022-08-28T04:06:25.200Z,15.73
2022-08-28T04:08:53.215Z,13.30
2022-08-28T04:11:21.244Z,12.97
2022-08-28T04:13:49.245Z,10.90
2022-08-28T04:16:19.449Z,14.13
2022-08-28T04:18:49.550Z,16.60
2022-08-28T04:21:18.423Z,17.07
2022-08-28T04:23:46.673Z,14.60
2022-08-28T04:26:15.589Z,11.37
2022-08-28T04:28:43.909Z,12.03
2022-08-28T04:31:11.990Z,11.67
2022-08-28T04:33:40.252Z,11.43
2022-08-28T04:36:12.274Z,12.77
2022-08-28T04:38:43.737Z,11.77
2022-08-28T04:41:13.013Z,11.83
2022-08-28T04:43:40.985Z,11.57
2022-08-28T04:46:11.371Z,9.50
2022-08-28T04:48:39.600Z,12.47
2022-08-28T04:51:10.521Z,14.37
2022-08-28T04:53:38.628Z,10.57
2022-08-28T04:56:07.983Z,9.73
2022-08-28T04:58:35.991Z,12.07
2022-08-28T05:01:06.742Z,10.80
2022-08-28T05:03:35.345Z,8.30
2022-08-28T05:06:04.063Z,10.80
2022-08-28T05:08:33.467Z,9.37
2022-08-28T05:11:10.820Z,7.03
2022-08-28T05:13:38.905Z,7.90
2022-08-28T05:16:07.338Z,7.83
2022-08-28T05:18:35.831Z,9.60
2022-08-28T05:21:03.817Z,8.23
2022-08-28T05:23:33.351Z,10.60
2022-08-28T05:26:01.353Z,11.13
2022-08-28T05:28:29.442Z,9.03
2022-08-28T05:30:57.450Z,8.63
2022-08-28T05:33:25.811Z,8.77
2022-08-28T05:35:53.822Z,12.53
2022-08-28T05:38:21.817Z,9.07
2022-08-28T05:40:51.237Z,9.77
2022-08-28T05:43:19.491Z,8.70
2022-08-28T05:45:47.530Z,8.40
2022-08-28T05:48:16.386Z,8.33
2022-08-28T05:50:47.391Z,10.03
2022-08-28T05:53:15.578Z,10.30
2022-08-28T05:55:43.568Z,9.93
2022-08-28T05:58:30.746Z,12.13
2022-08-28T06:01:08.653Z,10.33
2022-08-28T06:03:37.476Z,8.50
2022-08-28T06:06:05.827Z,7.80
2022-08-28T06:08:33.970Z,10.13
2022-08-28T06:11:04.041Z,9.07
2022-08-28T06:13:33.459Z,10.93
2022-08-28T06:16:02.364Z,7.63
2022-08-28T06:18:30.722Z,8.07
2022-08-28T06:21:02.492Z,8.47
2022-08-28T06:23:30.516Z,10.20
2022-08-28T06:25:58.515Z,9.33
2022-08-28T06:28:27.316Z,7.20
2022-08-28T06:31:18.542Z,8.23
2022-08-28T06:33:46.154Z,10.73
2022-08-28T06:36:14.185Z,10.87
2022-08-28T06:38:46.559Z,8.17
2022-08-28T06:41:15.756Z,9.70
2022-08-28T06:43:43.800Z,14.23
2022-08-28T06:46:13.209Z,7.57
2022-08-28T06:48:41.315Z,8.97
2022-08-28T06:51:10.169Z,8.60
2022-08-28T06:53:38.597Z,6.73
2022-08-28T06:56:08.578Z,11.27
2022-08-28T06:58:37.153Z,7.67
2022-08-28T07:01:06.575Z,10.20
2022-08-28T07:03:35.979Z,8.77
2022-08-28T07:06:12.582Z,9.53
2022-08-28T07:08:40.844Z,7.80
2022-08-28T07:11:13.245Z,9.40
2022-08-28T07:13:41.501Z,7.43
2022-08-28T07:16:09.578Z,9.00
2022-08-28T07:18:39.020Z,7.37
2022-08-28T07:21:12.131Z,8.10
2022-08-28T07:23:40.762Z,5.57
2022-08-28T07:26:10.056Z,8.83
2022-08-28T07:28:38.301Z,10.03
2022-08-28T07:31:07.862Z,9.07
2022-08-28T07:33:36.081Z,6.93
2022-08-28T07:36:07.369Z,11.00
2022-08-28T07:38:35.397Z,7.67
2022-08-28T07:41:03.715Z,7.50
2022-08-28T07:43:48.965Z,9.07
2022-08-28T07:46:17.094Z,9.70
2022-08-28T07:48:48.046Z,8.37
2022-08-28T07:51:17.449Z,10.20
2022-08-28T07:53:45.423Z,8.55
2022-08-28T07:56:13.381Z,7.97
2022-08-28T07:58:41.610Z,8.98
2022-08-28T08:01:09.677Z,7.43
2022-08-28T08:03:37.757Z,9.20
2022-08-28T08:06:06.122Z,9.52
2022-08-28T08:08:35.576Z,9.00
2022-08-28T08:11:05.280Z,9.52
2022-08-28T08:13:33.917Z,9.73
2022-08-28T08:16:03.470Z,10.85
2022-08-28T08:18:31.596Z,8.80
2022-08-28T08:20:59.634Z,9.48
2022-08-28T08:23:27.807Z,9.43
2022-08-28T08:25:58.069Z,6.88
2022-08-28T08:28:26.059Z,12.75
2022-08-28T08:31:04.142Z,8.70
2022-08-28T08:33:32.513Z,9.73
2022-08-28T08:36:00.598Z,9.70
2022-08-28T08:38:29.960Z,6.85
2022-08-28T08:40:59.972Z,8.60
2022-08-28T08:43:28.336Z,8.45
2022-08-28T08:45:56.563Z,6.53
2022-08-28T08:48:27.941Z,9.32
2022-08-28T08:50:56.060Z,7.55
2022-08-28T08:53:28.248Z,6.80
2022-08-28T08:55:57.052Z,8.45
2022-08-28T08:58:28.959Z,7.47
2022-08-28T09:01:01.288Z,8.07
2022-08-28T09:03:39.205Z,5.65
2022-08-28T09:06:17.278Z,8.88
2022-08-28T09:08:48.750Z,11.95
2022-08-28T09:11:26.868Z,5.32
2022-08-28T09:14:00.891Z,8.05
2022-08-28T09:16:30.231Z,5.07
2022-08-28T09:18:58.955Z,8.15
2022-08-28T09:21:29.553Z,8.43
2022-08-28T09:23:58.428Z,10.70
2022-08-28T09:26:26.524Z,6.57
2022-08-28T09:29:03.720Z,6.55
2022-08-28T09:31:33.389Z,8.50
2022-08-28T09:34:22.899Z,7.53
2022-08-28T09:36:51.068Z,5.15
2022-08-28T09:39:20.199Z,8.05
2022-08-28T09:42:30.090Z,10.30
2022-08-28T09:45:02.048Z,5.43
2022-08-28T09:47:49.228Z,5.55
2022-08-28T09:50:26.205Z,12.00
2022-08-28T09:52:55.014Z,10.60
2022-08-28T09:55:27.000Z,5.57
2022-08-28T09:57:55.586Z,4.75
2022-08-28T10:00:25.009Z,5.47
2022-08-28T10:02:54.983Z,7.93
2022-08-28T10:05:31.623Z,10.43
2022-08-28T10:08:02.120Z,5.32
2022-08-28T10:10:34.230Z,5.97
2022-08-28T10:13:06.051Z,2.83
2022-08-28T10:15:43.530Z,3.42
2022-08-28T10:18:33.027Z,8.88
2022-08-28T10:21:05.256Z,8.00
2022-08-28T10:23:38.178Z,3.45
2022-08-28T10:26:16.517Z,5.28
2022-08-28T10:28:47.393Z,8.55
2022-08-28T10:31:19.998Z,9.50
2022-08-28T10:33:58.933Z,6.38
2022-08-28T10:36:34.629Z,8.13
2022-08-28T10:39:09.137Z,4.82
2022-08-28T10:41:39.876Z,2.55
2022-08-28T10:44:07.870Z,3.20
2022-08-28T10:46:40.105Z,5.38
2022-08-28T10:49:09.677Z,3.83
2022-08-28T10:51:43.611Z,4.93
2022-08-28T10:54:16.113Z,2.30
2022-08-28T10:56:45.140Z,5.70
2022-08-28T10:59:13.318Z,4.38
2022-08-28T11:01:43.109Z,2.38
2022-08-28T11:04:12.374Z,2.45
2022-08-28T11:06:41.703Z,5.78
2022-08-28T11:09:26.286Z,2.38
2022-08-28T11:12:00.987Z,3.08
2022-08-28T11:14:32.023Z,2.22
2022-08-28T11:17:02.920Z,3.67
2022-08-28T11:19:52.309Z,3.00
2022-08-28T11:22:21.686Z,3.58
2022-08-28T11:24:55.969Z,2.38
2022-08-28T11:27:31.068Z,2.67
2022-08-28T11:30:32.941Z,3.67
2022-08-28T11:33:10.082Z,2.55
2022-08-28T11:35:51.773Z,3.88
2022-08-28T11:38:55.648Z,3.17
2022-08-28T11:41:26.659Z,3.72
2022-08-28T11:44:28.595Z,3.08
2022-08-28T11:46:58.925Z,4.78
2022-08-28T11:49:46.205Z,2.20
2022-08-28T11:52:29.758Z,5.38
2022-08-28T11:55:02.069Z,2.95
2022-08-28T11:57:40.972Z,2.47
2022-08-28T12:00:10.387Z,3.50
2022-08-28T12:03:13.698Z,2.40
2022-08-28T12:05:54.294Z,3.55
2022-08-28T12:09:11.713Z,2.22
2022-08-28T12:11:50.378Z,2.10
2022-08-28T12:15:07.768Z,2.83
2022-08-28T12:17:44.846Z,2.40
2022-08-28T12:20:14.503Z,2.30
2022-08-28T12:22:46.457Z,3.53
2022-08-28T12:25:20.717Z,4.53
2022-08-28T12:27:48.733Z,4.18
2022-08-28T12:30:25.183Z,2.20
2022-08-28T12:32:54.286Z,1.98
2022-08-28T12:35:23.702Z,4.35
2022-08-28T12:38:02.600Z,2.00
2022-08-28T12:40:33.349Z,3.75
2022-08-28T12:43:02.651Z,4.07
2022-08-28T12:45:32.167Z,2.40
2022-08-28T12:48:02.382Z,6.38
2022-08-28T12:50:33.212Z,3.30
2022-08-28T12:53:04.068Z,2.30
2022-08-28T12:55:32.743Z,3.17
2022-08-28T12:58:00.816Z,2.83
2022-08-28T13:00:32.096Z,3.45
2022-08-28T13:03:00.146Z,2.47
2022-08-28T13:05:39.655Z,3.35
2022-08-28T13:08:10.166Z,5.03
2022-08-28T13:10:39.244Z,2.03
2022-08-28T13:13:08.344Z,2.08
2022-08-28T13:15:55.349Z,2.05
2022-08-28T13:18:47.429Z,3.10
2022-08-28T13:21:33.949Z,2.60
2022-08-28T13:24:27.250Z,2.38
2022-08-28T13:27:03.432Z,3.80
2022-08-28T13:29:31.430Z,2.22
2022-08-28T13:32:00.309Z,2.72
2022-08-28T13:34:29.164Z,2.17
2022-08-28T13:36:59.734Z,2.33
2022-08-28T13:39:30.091Z,2.55
2022-08-28T13:41:59.741Z,2.47
2022-08-28T13:44:34.966Z,2.40
2022-08-28T13:47:03.613Z,5.35
2022-08-28T13:49:32.162Z,2.03
2022-08-28T13:52:01.057Z,2.25
2022-08-28T13:54:31.302Z,3.60
2022-08-28T13:57:00.207Z,2.58
2022-08-28T13:59:30.543Z,4.15
2022-08-28T14:02:17.162Z,2.00
2022-08-28T14:04:45.344Z,2.92
2022-08-28T14:07:13.459Z,1.92
2022-08-28T14:09:42.895Z,6.25
2022-08-28T14:12:12.094Z,4.32
2022-08-28T14:14:40.166Z,2.00
2022-08-28T14:17:08.364Z,2.17
2022-08-28T14:19:36.806Z,2.90
2022-08-28T14:22:05.005Z,1.88
2022-08-28T14:24:33.155Z,1.65
2022-08-28T14:27:02.649Z,1.60
2022-08-28T14:29:31.505Z,1.58
2022-08-28T14:31:59.985Z,1.27
2022-08-28T14:34:28.031Z,2.10
2022-08-28T14:36:56.170Z,1.48
2022-08-28T14:39:25.081Z,2.70
2022-08-28T14:41:53.420Z,1.30
2022-08-28T14:44:23.413Z,1.55
2022-08-28T14:46:52.668Z,3.28
2022-08-28T14:49:25.257Z,2.38
2022-08-28T14:51:54.217Z,1.15
2022-08-28T14:54:23.756Z,1.45
2022-08-28T14:56:52.341Z,1.20
2022-08-28T14:59:24.433Z,4.80
2022-08-28T15:01:53.332Z,1.50
2022-08-28T15:04:23.748Z,1.50
2022-08-28T15:06:51.959Z,3.05
2022-08-28T15:09:20.288Z,4.68
2022-08-28T15:11:48.299Z,3.28
2022-08-28T15:14:16.319Z,1.23
2022-08-28T15:16:46.599Z,1.25
2022-08-28T15:19:16.048Z,3.25
2022-08-28T15:21:45.309Z,2.28
2022-08-28T15:24:13.936Z,1.20
2022-08-28T15:26:41.956Z,1.30
2022-08-28T15:29:11.917Z,1.65
2022-08-28T15:31:41.278Z,3.00
2022-08-28T15:34:13.381Z,1.65
2022-08-28T15:36:41.872Z,1.30
2022-08-28T15:39:27.266Z,4.28
2022-08-28T15:41:55.437Z,4.00
2022-08-28T15:44:23.535Z,2.75
2022-08-28T15:46:52.969Z,1.92
2022-08-28T15:49:23.863Z,2.88
2022-08-28T15:51:52.601Z,2.42
2022-08-28T15:54:20.741Z,1.75
2022-08-28T15:56:49.638Z,1.50
2022-08-28T15:59:18.802Z,1.55
2022-08-28T16:01:46.904Z,1.25
2022-08-28T16:04:15.974Z,2.78
2022-08-28T16:06:46.013Z,1.30
2022-08-28T16:09:14.280Z,1.27
2022-08-28T16:11:43.821Z,2.45
2022-08-28T16:14:12.178Z,1.30
2022-08-28T16:16:40.322Z,1.55
2022-08-28T16:19:14.559Z,1.10
2022-08-28T16:21:42.695Z,3.22
2022-08-28T16:24:12.100Z,1.13
2022-08-28T16:26:40.249Z,1.42
2022-08-28T16:29:08.369Z,1.60
2022-08-28T16:31:37.000Z,2.47
2022-08-28T16:34:05.028Z,2.92
2022-08-28T16:36:33.445Z,2.10
2022-08-28T16:39:03.939Z,1.25
2022-08-28T16:41:33.547Z,2.95
2022-08-28T16:44:01.510Z,1.38
2022-08-28T16:46:44.310Z,2.58
2022-08-28T16:49:12.430Z,1.30
2022-08-28T16:51:40.530Z,3.25
2022-08-28T16:54:08.672Z,1.75
2022-08-28T16:56:38.263Z,1.98
2022-08-28T16:59:10.144Z,1.10
2022-08-28T17:01:40.881Z,1.27
2022-08-28T17:04:10.770Z,1.42
2022-08-28T17:06:39.415Z,1.13
2022-08-28T17:09:07.427Z,1.20
2022-08-28T17:11:35.699Z,1.25
2022-08-28T17:14:05.098Z,3.00
2022-08-28T17:16:33.250Z,1.95
2022-08-28T17:19:01.256Z,1.40
2022-08-28T17:21:46.733Z,1.38
2022-08-28T17:24:14.778Z,1.02
2022-08-28T17:26:43.748Z,2.20
2022-08-28T17:29:13.147Z,2.38
2022-08-28T17:31:41.453Z,3.28
2022-08-28T17:34:10.506Z,1.00
2022-08-28T17:36:38.715Z,1.27
2022-08-28T17:39:11.966Z,1.23
2022-08-28T17:41:41.223Z,1.35
2022-08-28T17:44:09.496Z,1.52
2022-08-28T17:46:38.941Z,3.63
2022-08-28T17:49:07.478Z,1.00
2022-08-28T17:51:43.234Z,2.85
2022-08-28T17:54:13.132Z,2.58
2022-08-28T17:56:41.318Z,0.90
2022-08-28T17:59:09.460Z,3.80
2022-08-28T18:01:39.046Z,1.13
2022-08-28T18:04:07.177Z,1.40
2022-08-28T18:06:35.191Z,1.30
2022-08-28T18:09:04.028Z,2.50
2022-08-28T18:11:32.081Z,3.72
2022-08-28T18:14:00.802Z,1.45
2022-08-28T18:16:31.516Z,1.10
2022-08-28T18:19:01.324Z,1.00
2022-08-28T18:21:29.457Z,10.60
2022-08-28T18:23:57.784Z,1.38
2022-08-28T18:26:25.767Z,1.05
2022-08-28T18:28:53.834Z,2.33
2022-08-28T18:31:21.984Z,1.35
2022-08-28T18:33:50.241Z,2.15
2022-08-28T18:36:19.662Z,1.40
2022-08-28T18:38:47.841Z,1.40
2022-08-28T18:41:15.900Z,1.95
2022-08-28T18:43:43.970Z,2.90
2022-08-28T18:46:14.145Z,2.88
2022-08-28T18:48:42.678Z,1.83
2022-08-28T18:51:11.771Z,1.17
2022-08-28T18:53:42.357Z,2.47
2022-08-28T18:56:12.473Z,1.80
2022-08-28T18:58:40.774Z,3.55
2022-08-28T19:01:09.416Z,1.30
2022-08-28T19:03:37.568Z,3.80
2022-08-28T19:06:06.414Z,1.48
2022-08-28T19:08:35.614Z,3.58
2022-08-28T19:11:08.848Z,3.45
2022-08-28T19:13:37.076Z,1.30
2022-08-28T19:16:06.219Z,1.65
2022-08-28T19:18:34.371Z,7.78
2022-08-28T19:21:06.971Z,2.28
2022-08-28T19:23:35.140Z,1.90
2022-08-28T19:26:03.250Z,2.28
2022-08-28T19:28:32.698Z,3.25
2022-08-28T19:31:01.043Z,6.03
2022-08-28T19:33:29.045Z,1.33
2022-08-28T19:35:57.111Z,2.35
2022-08-28T19:38:25.147Z,1.30
2022-08-28T19:40:58.947Z,3.97
2022-08-28T19:43:31.136Z,2.20
2022-08-28T19:46:18.395Z,3.28
2022-08-28T19:48:48.359Z,1.10
2022-08-28T19:51:17.712Z,1.23
2022-08-28T19:53:56.845Z,1.35
2022-08-28T19:56:27.292Z,2.60
2022-08-28T19:58:57.645Z,4.10
2022-08-28T20:01:29.653Z,2.85
2022-08-28T20:03:58.228Z,4.30
2022-08-28T20:06:26.348Z,1.40
2022-08-28T20:08:54.680Z,4.47
2022-08-28T20:11:25.333Z,1.30
2022-08-28T20:13:59.077Z,4.40
2022-08-28T20:16:28.799Z,2.15
2022-08-28T20:18:57.780Z,1.42
2022-08-28T20:21:36.849Z,1.95
2022-08-28T20:24:06.139Z,1.63
2022-08-28T20:26:34.160Z,5.15
2022-08-28T20:29:02.121Z,2.50
2022-08-28T20:31:31.578Z,2.33
2022-08-28T20:33:59.691Z,4.35
2022-08-28T20:36:27.674Z,1.85
2022-08-28T20:38:55.697Z,1.60
2022-08-28T20:41:23.832Z,14.43
2022-08-28T20:43:51.856Z,8.55
2022-08-28T20:46:23.171Z,2.83
2022-08-28T20:48:52.625Z,3.63
2022-08-28T20:51:41.521Z,3.15
2022-08-28T20:54:09.540Z,3.40
2022-08-28T20:56:37.612Z,1.88
2022-08-28T20:59:05.642Z,3.55
2022-08-28T21:01:33.876Z,2.28
2022-08-28T21:04:03.613Z,2.20
2022-08-28T21:06:32.193Z,13.07
2022-08-28T21:09:00.228Z,7.55
2022-08-28T21:11:28.256Z,6.00
2022-08-28T21:13:56.527Z,2.87
2022-08-28T21:16:24.652Z,2.47
2022-08-28T21:19:12.125Z,1.80
2022-08-28T21:21:42.276Z,3.60
2022-08-28T21:24:11.336Z,1.90
2022-08-28T21:26:42.612Z,2.22
2022-08-28T21:29:10.841Z,6.95
2022-08-28T21:31:40.851Z,5.32
2022-08-28T21:34:09.756Z,4.23
2022-08-28T21:36:38.102Z,1.90
2022-08-28T21:39:07.543Z,4.00
2022-08-28T21:41:35.576Z,3.17
2022-08-28T21:44:03.770Z,2.23
2022-08-28T21:46:31.968Z,2.80
2022-08-28T21:49:00.009Z,2.33
2022-08-28T21:51:28.472Z,2.93
2022-08-28T21:53:57.645Z,2.93
2022-08-28T21:56:27.898Z,2.17
2022-08-28T21:58:56.172Z,1.80
2022-08-28T22:01:25.964Z,3.93
2022-08-28T22:03:54.526Z,1.93
2022-08-28T22:06:22.927Z,2.03
2022-08-28T22:08:51.200Z,2.43
2022-08-28T22:11:24.730Z,2.10
2022-08-28T22:13:54.627Z,2.70
2022-08-28T22:16:22.827Z,2.40
2022-08-28T22:18:50.995Z,3.93
2022-08-28T22:21:38.830Z,1.67
2022-08-28T22:24:07.213Z,4.53
2022-08-28T22:26:35.468Z,5.57
2022-08-28T22:29:05.931Z,2.20
2022-08-28T22:31:34.207Z,2.00
2022-08-28T22:34:04.739Z,3.97
2022-08-28T22:36:34.963Z,1.90
2022-08-28T22:39:03.051Z,1.93
2022-08-28T22:41:31.504Z,2.40
2022-08-28T22:43:59.850Z,2.20
2022-08-28T22:46:29.407Z,2.60
2022-08-28T22:48:57.832Z,2.80
2022-08-28T22:51:25.816Z,2.87
2022-08-28T22:53:54.381Z,3.20
2022-08-28T22:56:22.827Z,2.20
2022-08-28T22:58:50.843Z,2.47
2022-08-28T23:01:19.819Z,3.40
2022-08-28T23:03:50.855Z,3.50
2022-08-28T23:06:18.946Z,2.60
2022-08-28T23:08:47.113Z,2.93
2022-08-28T23:11:15.179Z,2.70
2022-08-28T23:13:43.225Z,5.93
2022-08-28T23:16:11.773Z,6.20
2022-08-28T23:19:06.715Z,5.30
2022-08-28T23:21:29.478Z,4.40
2022-08-28T23:23:57.629Z,2.50
2022-08-28T23:26:25.861Z,3.07
2022-08-28T23:28:53.940Z,3.00
2022-08-28T23:31:22.004Z,2.87
2022-08-28T23:33:51.086Z,3.00
2022-08-28T23:36:19.611Z,3.73
2022-08-28T23:38:49.063Z,3.50
2022-08-28T23:41:17.177Z,3.60
2022-08-28T23:43:45.213Z,4.97
2022-08-28T23:46:16.201Z,3.23
2022-08-28T23:48:45.205Z,3.80
2022-08-28T23:51:13.850Z,3.70
2022-08-28T23:53:42.332Z,3.17
2022-08-28T23:56:12.768Z,5.40
2022-08-28T23:58:43.189Z,3.00
